createdAt,value
2023-04-01T00:00:19.123Z,97509.75
2023-04-01T00:02:48.563Z,97508.22
2023-04-01T00:05:18.273Z,97504.41
2023-04-01T00:07:48.394Z,97497.66
2023-04-01T00:10:18.295Z,97498.78
2023-04-01T00:12:48.624Z,97502.94
2023-04-01T00:15:16.946Z,97493.47
2023-04-01T00:17:43.572Z,97489.44
2023-04-01T00:20:10.816Z,97497.69
2023-04-01T00:22:37.346Z,97496.75
2023-04-01T00:25:05.337Z,97482.91
2023-04-01T00:27:31.809Z,97474.16
2023-04-01T00:29:58.347Z,97497.75
2023-04-01T00:32:25.109Z,97492.00
2023-04-01T00:34:52.782Z,97477.47
2023-04-01T00:37:20.113Z,97475.59
2023-04-01T00:39:49.813Z,97484.50
2023-04-01T00:42:17.547Z,97492.34
2023-04-01T00:44:44.066Z,97495.03
2023-04-01T00:47:11.117Z,97496.22
2023-04-01T00:49:41.707Z,97502.63
2023-04-01T00:52:11.881Z,97500.81
2023-04-01T00:54:39.780Z,97484.94
2023-04-01T00:57:24.732Z,97486.47
2023-04-01T00:59:55.159Z,97485.28
2023-04-01T01:02:22.817Z,97479.16
2023-04-01T01:04:49.859Z,97480.16
2023-04-01T01:07:49.418Z,97490.09
2023-04-01T01:10:32.252Z,97483.28
2023-04-01T01:13:37.269Z,97487.25
2023-04-01T01:16:25.636Z,97485.09
2023-04-01T01:19:33.526Z,97478.69
2023-04-01T01:22:37.066Z,97484.09
2023-04-01T01:25:22.291Z,97476.00
2023-04-01T01:28:06.017Z,97471.38
2023-04-01T01:30:45.349Z,97469.06
2023-04-01T01:33:17.714Z,97466.19
2023-04-01T01:35:49.617Z,97467.69
2023-04-01T01:38:23.639Z,97444.75
2023-04-01T01:40:55.449Z,97452.50
2023-04-01T01:43:26.470Z,97458.75
2023-04-01T01:45:56.990Z,97459.44
2023-04-01T01:48:25.645Z,97474.50
2023-04-01T01:50:53.970Z,97453.78
2023-04-01T01:53:25.681Z,97453.56
2023-04-01T01:55:55.410Z,97460.81
2023-04-01T01:58:41.456Z,97459.84
2023-04-01T02:01:13.819Z,97469.88
2023-04-01T02:03:43.114Z,97446.25
2023-04-01T02:06:12.345Z,97453.38
2023-04-01T02:08:44.879Z,97471.38
2023-04-01T02:11:14.308Z,97467.47
2023-04-01T02:13:45.444Z,97479.66
2023-04-01T02:16:23.877Z,97466.47
2023-04-01T02:18:57.069Z,97477.03
2023-04-01T02:21:27.391Z,97473.09
2023-04-01T02:23:59.733Z,97477.22
2023-04-01T02:26:27.468Z,97467.28
2023-04-01T02:28:57.876Z,97488.78
2023-04-01T02:31:26.078Z,97486.31
2023-04-01T02:33:57.230Z,97483.66
2023-04-01T02:36:26.855Z,97471.84
2023-04-01T02:38:56.830Z,97475.97
2023-04-01T02:41:27.179Z,97475.97
2023-04-01T02:43:56.019Z,97474.16
2023-04-01T02:46:24.909Z,97472.19
2023-04-01T02:48:51.393Z,97473.13
2023-04-01T02:51:18.584Z,97466.56
2023-04-01T02:53:45.292Z,97473.78
2023-04-01T02:56:11.765Z,97477.88
2023-04-01T02:58:38.198Z,97481.97
2023-04-01T03:01:04.810Z,97463.31
2023-04-01T03:03:31.287Z,97481.72
2023-04-01T03:05:59.578Z,97485.03
2023-04-01T03:08:26.698Z,97472.81
2023-04-01T03:10:53.138Z,97476.69
2023-04-01T03:13:19.624Z,97484.00
2023-04-01T03:15:46.114Z,97484.19
2023-04-01T03:18:12.640Z,97480.28
2023-04-01T03:20:39.131Z,97480.91
2023-04-01T03:23:05.831Z,97473.78
2023-04-01T03:25:32.564Z,97482.19
2023-04-01T03:28:00.640Z,97471.41
2023-04-01T03:30:32.209Z,97466.50
2023-04-01T03:33:00.496Z,97468.22
2023-04-01T03:35:28.350Z,97484.28
2023-04-01T03:37:58.083Z,97489.22
2023-04-01T03:40:29.492Z,97484.91
2023-04-01T03:42:58.153Z,97490.56
2023-04-01T03:45:24.592Z,97486.84
2023-04-01T03:47:51.284Z,97496.56
2023-04-01T03:50:17.825Z,97497.94
2023-04-01T03:52:44.300Z,97494.44
2023-04-01T03:55:10.733Z,97493.00
2023-04-01T03:57:37.311Z,97497.16
2023-04-01T04:00:04.233Z,97490.06
2023-04-01T04:02:30.909Z,97491.06
2023-04-01T04:05:00.564Z,97499.75
2023-04-01T04:07:30.135Z,97494.03
2023-04-01T04:09:58.962Z,97486.63
2023-04-01T04:12:25.460Z,97486.28
2023-04-01T04:14:51.941Z,97488.66
2023-04-01T04:17:18.439Z,97470.19
2023-04-01T04:19:45.026Z,97485.03
2023-04-01T04:22:11.460Z,97496.09
2023-04-01T04:24:38.140Z,97494.31
2023-04-01T04:27:04.806Z,97483.75
2023-04-01T04:29:31.281Z,97481.78
2023-04-01T04:32:00.334Z,97488.41
2023-04-01T04:34:27.107Z,97478.81
2023-04-01T04:36:53.855Z,97477.00
2023-04-01T04:39:20.421Z,97482.94
2023-04-01T04:41:46.890Z,97485.56
2023-04-01T04:44:13.364Z,97481.31
2023-04-01T04:46:40.552Z,97472.22
2023-04-01T04:49:07.600Z,97484.25
2023-04-01T04:51:36.654Z,97486.88
2023-04-01T04:54:04.698Z,97473.88
2023-04-01T04:56:32.460Z,97477.47
2023-04-01T04:59:02.187Z,97473.00
2023-04-01T05:01:29.991Z,97482.28
2023-04-01T05:03:56.536Z,97475.34
2023-04-01T05:06:23.661Z,97483.75
2023-04-01T05:08:50.427Z,97479.06
2023-04-01T05:11:19.680Z,97481.59
2023-04-01T05:13:46.313Z,97478.97
2023-04-01T05:16:16.351Z,97478.47
2023-04-01T05:18:43.226Z,97489.19
2023-04-01T05:21:11.500Z,97484.59
2023-04-01T05:23:38.262Z,97490.69
2023-04-01T05:26:10.836Z,97490.69
2023-04-01T05:28:37.427Z,97483.47
2023-04-01T05:31:05.258Z,97495.28
2023-04-01T05:33:32.087Z,97485.28
2023-04-01T05:36:09.310Z,97490.56
2023-04-01T05:38:35.874Z,97481.81
2023-04-01T05:41:04.028Z,97487.25
2023-04-01T05:43:36.280Z,97471.13
2023-04-01T05:46:02.754Z,97484.31
2023-04-01T05:48:33.676Z,97492.25
2023-04-01T05:51:03.729Z,97486.63
2023-04-01T05:53:34.340Z,97491.56
2023-04-01T05:56:04.968Z,97495.84
2023-04-01T05:58:31.800Z,97497.16
2023-04-01T06:01:10.110Z,97487.66
2023-04-01T06:03:39.531Z,97491.25
2023-04-01T06:06:12.597Z,97467.34
2023-04-01T06:08:39.044Z,97484.81
2023-04-01T06:11:11.225Z,97489.97
2023-04-01T06:14:15.298Z,97486.50
2023-04-01T06:16:47.757Z,97491.47
2023-04-01T06:19:55.610Z,97492.44
2023-04-01T06:22:30.351Z,97495.53
2023-04-01T06:25:11.886Z,97498.00
2023-04-01T06:27:44.614Z,97495.13
2023-04-01T06:30:35.998Z,97493.97
2023-04-01T06:33:13.973Z,97485.41
2023-04-01T06:36:05.103Z,97490.16
2023-04-01T06:38:45.951Z,97480.75
2023-04-01T06:41:38.993Z,97497.75
2023-04-01T06:44:35.763Z,97494.63
2023-04-01T06:47:26.619Z,97497.03
2023-04-01T06:50:13.367Z,97496.00
2023-04-01T06:52:48.091Z,97500.91
2023-04-01T06:55:44.078Z,97506.81
2023-04-01T06:58:36.863Z,97492.81
2023-04-01T07:01:07.238Z,97502.16
2023-04-01T07:03:40.065Z,97511.59
2023-04-01T07:06:32.955Z,97512.63
2023-04-01T07:09:06.313Z,97512.78
2023-04-01T07:11:36.265Z,97517.63
2023-04-01T07:14:13.088Z,97518.22
2023-04-01T07:16:50.149Z,97510.91
2023-04-01T07:19:35.612Z,97517.09
2023-04-01T07:22:42.034Z,97512.53
2023-04-01T07:25:18.640Z,97503.91
2023-04-01T07:27:47.011Z,97519.06
2023-04-01T07:30:18.281Z,97520.28
2023-04-01T07:33:16.533Z,97518.38
2023-04-01T07:36:11.100Z,97518.28
2023-04-01T07:38:56.947Z,97518.13
2023-04-01T07:41:49.975Z,97509.69
2023-04-01T07:45:02.302Z,97518.38
2023-04-01T07:48:03.129Z,97518.38
2023-04-01T07:50:47.063Z,97502.41
2023-04-01T07:53:20.418Z,97512.53
2023-04-01T07:56:11.481Z,97516.47
2023-04-01T07:59:10.647Z,97511.28
2023-04-01T08:02:17.648Z,97509.69
2023-04-01T08:04:57.540Z,97516.50
2023-04-01T08:07:30.105Z,97522.16
2023-04-01T08:10:12.344Z,97508.25
2023-04-01T08:12:41.740Z,97518.91
2023-04-01T08:15:14.243Z,97515.66
2023-04-01T08:18:23.861Z,97516.13
2023-04-01T08:21:04.023Z,97513.47
2023-04-01T08:23:49.390Z,97510.22
2023-04-01T08:26:33.012Z,97508.69
2023-04-01T08:29:12.788Z,97496.38
2023-04-01T08:32:19.194Z,97503.25
2023-04-01T08:34:51.033Z,97513.06
2023-04-01T08:37:26.028Z,97522.63
2023-04-01T08:40:00.147Z,97509.50
2023-04-01T08:42:46.990Z,97519.19
2023-04-01T08:45:45.657Z,97513.97
2023-04-01T08:48:34.095Z,97516.97
2023-04-01T08:51:25.565Z,97509.38
2023-04-01T08:54:01.664Z,97510.00
2023-04-01T08:56:39.050Z,97516.50
2023-04-01T08:59:35.452Z,97519.75
2023-04-01T09:02:23.100Z,97511.72
2023-04-01T09:05:23.734Z,97513.00
2023-04-01T09:08:01.363Z,97490.13
2023-04-01T09:10:44.547Z,97482.19
2023-04-01T09:13:40.511Z,97499.22
2023-04-01T09:16:19.100Z,97482.91
2023-04-01T09:19:08.965Z,97468.81
2023-04-01T09:21:54.521Z,97461.31
2023-04-01T09:24:47.667Z,97463.66
2023-04-01T09:27:33.004Z,97457.03
2023-04-01T09:30:08.490Z,97471.44
2023-04-01T09:32:56.050Z,97457.16
2023-04-01T09:35:41.956Z,97463.66
2023-04-01T09:38:31.652Z,97472.03
2023-04-01T09:41:27.805Z,97450.41
2023-04-01T09:44:12.964Z,97450.16
2023-04-01T09:46:48.244Z,97450.19
2023-04-01T09:49:41.285Z,97446.31
2023-04-01T09:52:36.796Z,97447.88
2023-04-01T09:55:39.606Z,97447.38
2023-04-01T09:58:43.811Z,97441.19
2023-04-01T10:01:16.278Z,97421.94
2023-04-01T10:04:12.088Z,97428.06
2023-04-01T10:07:18.041Z,97403.59
2023-04-01T10:10:25.915Z,97416.59
2023-04-01T10:13:01.642Z,97415.69
2023-04-01T10:15:49.556Z,97415.09
2023-04-01T10:18:37.294Z,97409.91
2023-04-01T10:21:03.710Z,97399.97
2023-04-01T10:24:07.178Z,97418.94
2023-04-01T10:26:51.135Z,97412.47
2023-04-01T10:29:26.777Z,97410.63
2023-04-01T10:32:12.030Z,97398.09
2023-04-01T10:34:57.031Z,97404.25
2023-04-01T10:37:53.949Z,97392.81
2023-04-01T10:40:57.232Z,97388.72
2023-04-01T10:44:01.385Z,97381.47
2023-04-01T10:46:41.304Z,97394.28
2023-04-01T10:49:10.789Z,97395.66
2023-04-01T10:51:56.033Z,97384.59
2023-04-01T10:54:42.308Z,97383.19
2023-04-01T10:57:45.872Z,97365.97
2023-04-01T11:00:57.283Z,97370.06
2023-04-01T11:03:55.111Z,97361.88
2023-04-01T11:06:38.277Z,97358.78
2023-04-01T11:09:16.750Z,97354.69
2023-04-01T11:12:36.478Z,97349.56
2023-04-01T11:15:12.677Z,97332.78
2023-04-01T11:17:51.098Z,97340.16
2023-04-01T11:20:33.703Z,97343.03
2023-04-01T11:23:38.334Z,97345.91
2023-04-01T11:26:17.025Z,97349.75
2023-04-01T11:29:02.981Z,97340.75
2023-04-01T11:31:47.373Z,97346.34
2023-04-01T11:34:16.650Z,97375.44
2023-04-01T11:37:06.282Z,97383.53
2023-04-01T11:42:32.831Z,97416.44
2023-04-01T11:45:14.390Z,97403.63
2023-04-01T11:47:50.574Z,97408.88
2023-04-01T11:50:19.848Z,97405.81
2023-04-01T11:53:03.058Z,97399.28
2023-04-01T11:56:08.917Z,97397.25
2023-04-01T11:58:41.104Z,97394.28
2023-04-01T12:01:20.919Z,97391.34
2023-04-01T12:04:10.117Z,97383.69
2023-04-01T12:06:58.495Z,97381.88
2023-04-01T12:09:49.893Z,97380.66
2023-04-01T12:12:40.108Z,97372.69
2023-04-01T12:15:30.319Z,97374.38
2023-04-01T12:18:19.868Z,97369.06
2023-04-01T12:21:01.460Z,97368.19
2023-04-01T12:23:43.612Z,97372.53
2023-04-01T12:27:01.281Z,97373.38
2023-04-01T12:30:11.480Z,97371.88
2023-04-01T12:33:02.943Z,97382.13
2023-04-01T12:35:38.567Z,97374.47
2023-04-01T12:38:46.854Z,97379.34
2023-04-01T12:41:25.611Z,97376.25
2023-04-01T12:44:23.387Z,97354.41
2023-04-01T12:46:58.683Z,97368.03
2023-04-01T12:49:43.797Z,97383.28
2023-04-01T12:52:12.916Z,97371.56
2023-04-01T12:54:51.523Z,97382.78
2023-04-01T12:57:26.662Z,97369.25
2023-04-01T13:00:16.811Z,97366.88
2023-04-01T13:03:07.887Z,97390.09
2023-04-01T13:05:56.863Z,97389.94
2023-04-01T13:08:54.401Z,97386.97
2023-04-01T13:11:27.020Z,97375.38
2023-04-01T13:14:31.795Z,97372.69
2023-04-01T13:17:13.707Z,97376.34
2023-04-01T13:20:06.114Z,97354.47
2023-04-01T13:22:38.906Z,97361.84
2023-04-01T13:25:20.636Z,97358.03
2023-04-01T13:27:52.414Z,97324.41
2023-04-01T13:30:24.837Z,97336.44
2023-04-01T13:33:03.191Z,97336.31
2023-04-01T13:35:43.712Z,97327.69
2023-04-01T13:38:47.765Z,97329.63
2023-04-01T13:41:27.259Z,97345.03
2023-04-01T13:44:05.864Z,97324.72
2023-04-01T13:46:54.275Z,97339.72
2023-04-01T13:49:42.555Z,97344.81
2023-04-01T13:52:16.286Z,97318.69
2023-04-01T13:55:07.480Z,97341.13
2023-04-01T13:58:07.104Z,97351.69
2023-04-01T14:00:59.736Z,97333.66
2023-04-01T14:03:35.488Z,97353.94
2023-04-01T14:06:13.962Z,97334.53
2023-04-01T14:08:51.110Z,97351.06
2023-04-01T14:11:38.152Z,97316.97
2023-04-01T14:14:44.654Z,97366.06
2023-04-01T14:17:32.655Z,97365.78
2023-04-01T14:20:23.971Z,97375.88
2023-04-01T14:22:59.281Z,97389.78
2023-04-01T14:26:05.530Z,97369.72
2023-04-01T14:28:58.561Z,97359.41
2023-04-01T14:34:15.819Z,97375.91
2023-04-01T14:37:06.427Z,97368.97
2023-04-01T14:40:07.327Z,97371.94
2023-04-01T14:42:52.786Z,97371.44
2023-04-01T14:45:56.577Z,97371.72
2023-04-01T14:48:35.309Z,97377.13
2023-04-01T14:51:35.398Z,97362.22
2023-04-01T14:54:26.568Z,97371.53
2023-04-01T14:57:13.859Z,97371.63
2023-04-01T14:59:46.903Z,97368.56
2023-04-01T15:02:44.382Z,97352.41
2023-04-01T15:05:35.146Z,97357.72
2023-04-01T15:08:15.562Z,97349.63
2023-04-01T15:10:42.046Z,97358.13
2023-04-01T15:13:24.909Z,97354.00
2023-04-01T15:16:28.696Z,97357.72
2023-04-01T15:19:20.975Z,97357.47
2023-04-01T15:22:08.011Z,97349.53
2023-04-01T15:24:40.620Z,97358.84
2023-04-01T15:27:23.503Z,97342.06
2023-04-01T15:30:05.564Z,97360.25
2023-04-01T15:32:54.864Z,97358.78
2023-04-01T15:35:52.415Z,97355.88
2023-04-01T15:38:37.047Z,97351.31
2023-04-01T15:41:18.048Z,97340.53
2023-04-01T15:43:46.373Z,97330.31
2023-04-01T15:46:28.685Z,97337.22
2023-04-01T15:49:12.373Z,97345.06
2023-04-01T15:52:01.776Z,97346.91
2023-04-01T15:54:47.025Z,97337.25
2023-04-01T15:57:25.636Z,97337.88
2023-04-01T15:59:55.606Z,97334.69
2023-04-01T16:02:37.919Z,97335.69
2023-04-01T16:05:35.914Z,97326.38
2023-04-01T16:08:17.144Z,97321.47
2023-04-01T16:10:59.813Z,97322.66
2023-04-01T16:13:49.947Z,97332.22
2023-04-01T16:16:29.979Z,97334.31
2023-04-01T16:19:25.056Z,97329.25
2023-04-01T16:22:02.615Z,97330.50
2023-04-01T16:24:52.362Z,97326.75
2023-04-01T16:27:28.270Z,97323.75
2023-04-01T16:30:05.491Z,97316.28
2023-04-01T16:32:52.132Z,97326.91
2023-04-01T16:35:24.711Z,97331.84
2023-04-01T16:37:56.938Z,97315.69
2023-04-01T16:40:41.972Z,97322.56
2023-04-01T16:43:11.446Z,97326.03
2023-04-01T16:45:45.361Z,97316.75
2023-04-01T16:48:18.419Z,97321.09
2023-04-01T16:50:53.273Z,97320.09
2023-04-01T16:53:48.208Z,97337.22
2023-04-01T16:56:21.692Z,97340.81
2023-04-01T16:58:56.957Z,97352.38
2023-04-01T17:01:30.215Z,97336.41
2023-04-01T17:04:09.048Z,97347.72
2023-04-01T17:06:36.048Z,97350.84
2023-04-01T17:09:40.481Z,97358.16
2023-04-01T17:12:25.317Z,97353.28
2023-04-01T17:15:11.277Z,97357.94
2023-04-01T17:18:00.657Z,97357.94
2023-04-01T17:20:30.005Z,97357.13
2023-04-01T17:23:02.814Z,97374.66
2023-04-01T17:26:06.753Z,97375.50
2023-04-01T17:28:47.033Z,97386.38
2023-04-01T17:31:42.728Z,97390.19
2023-04-01T17:34:27.419Z,97391.19
2023-04-01T17:37:10.461Z,97393.78
2023-04-01T17:40:09.863Z,97384.44
2023-04-01T17:42:40.524Z,97401.75
2023-04-01T17:45:13.201Z,97399.16
2023-04-01T17:47:42.973Z,97406.22
2023-04-01T17:50:21.818Z,97414.78
2023-04-01T17:52:59.650Z,97413.13
2023-04-01T17:55:47.321Z,97412.28
2023-04-01T17:58:22.785Z,97426.00
2023-04-01T18:00:59.619Z,97427.44
2023-04-01T18:03:48.382Z,97424.00
2023-04-01T18:06:20.975Z,97426.66
2023-04-01T18:09:01.692Z,97431.28
2023-04-01T18:11:40.955Z,97434.63
2023-04-01T18:14:28.197Z,97444.44
2023-04-01T18:17:12.081Z,97443.59
2023-04-01T18:20:10.203Z,97445.59
2023-04-01T18:23:00.735Z,97455.19
2023-04-01T18:25:36.143Z,97456.47
2023-04-01T18:28:39.356Z,97441.16
2023-04-01T18:31:27.021Z,97464.41
2023-04-01T18:34:00.907Z,97465.78
2023-04-01T18:36:45.435Z,97428.81
2023-04-01T18:39:29.783Z,97463.81
2023-04-01T18:42:09.471Z,97485.72
2023-04-01T18:44:55.198Z,97478.13
2023-04-01T18:47:24.597Z,97477.31
2023-04-01T18:50:19.581Z,97477.97
2023-04-01T18:52:46.678Z,97478.13
2023-04-01T18:55:31.521Z,97482.25
2023-04-01T18:58:21.516Z,97496.44
2023-04-01T19:01:09.034Z,97488.53
2023-04-01T19:04:01.406Z,97492.84
2023-04-01T19:06:43.629Z,97500.06
2023-04-01T19:09:21.064Z,97493.47
2023-04-01T19:12:48.542Z,97504.38
2023-04-01T19:15:40.091Z,97505.53
2023-04-01T19:18:43.876Z,97522.50
2023-04-01T19:21:19.398Z,97526.47
2023-04-01T19:24:23.091Z,97537.00
2023-04-01T19:27:17.191Z,97530.09
2023-04-01T19:30:28.254Z,97526.47
2023-04-01T19:33:28.520Z,97535.69
2023-04-01T19:36:22.384Z,97540.00
2023-04-01T19:39:23.986Z,97548.41
2023-04-01T19:42:12.274Z,97551.03
2023-04-01T19:45:22.410Z,97530.44
2023-04-01T19:48:11.041Z,97552.22
2023-04-01T19:50:57.450Z,97549.91
2023-04-01T19:53:39.198Z,97564.44
2023-04-01T19:56:24.747Z,97561.66
2023-04-01T19:59:29.712Z,97562.44
2023-04-01T20:02:30.895Z,97569.88
2023-04-01T20:05:00.944Z,97559.63
2023-04-01T20:07:45.271Z,97562.56
2023-04-01T20:10:57.685Z,97571.50
2023-04-01T20:13:39.855Z,97575.59
2023-04-01T20:16:11.749Z,97580.06
2023-04-01T20:18:59.245Z,97580.91
2023-04-01T20:21:36.254Z,97577.09
2023-04-01T20:24:08.452Z,97583.03
2023-04-01T20:26:39.126Z,97577.09
2023-04-01T20:29:25.928Z,97572.47
2023-04-01T20:32:25.828Z,97590.44
2023-04-01T20:35:29.988Z,97594.06
2023-04-01T20:38:26.193Z,97584.84
2023-04-01T20:41:12.396Z,97594.25
2023-04-01T20:43:45.803Z,97601.50
2023-04-01T20:46:45.305Z,97588.66
2023-04-01T20:49:38.174Z,97609.28
2023-04-01T20:52:15.892Z,97611.09
2023-04-01T20:54:54.581Z,97612.56
2023-04-01T20:57:39.512Z,97607.28
2023-04-01T21:00:38.692Z,97611.75
2023-04-01T21:03:14.328Z,97616.03
2023-04-01T21:06:11.103Z,97621.28
2023-04-01T21:08:44.761Z,97616.50
2023-04-01T21:11:41.825Z,97615.53
2023-04-01T21:15:02.568Z,97623.75
2023-04-01T21:17:34.782Z,97626.91
2023-04-01T21:20:23.268Z,97628.06
2023-04-01T21:23:02.030Z,97628.84
2023-04-01T21:25:33.820Z,97628.56
2023-04-01T21:28:07.552Z,97630.53
2023-04-01T21:31:16.545Z,97627.41
2023-04-01T21:33:58.321Z,97634.84
2023-04-01T21:36:47.469Z,97625.47
2023-04-01T21:39:43.896Z,97635.53
2023-04-01T21:42:19.759Z,97635.97
2023-04-01T21:45:17.882Z,97628.84
2023-04-01T21:48:03.118Z,97635.63
2023-04-01T21:50:32.761Z,97634.63
2023-04-01T21:53:36.975Z,97633.78
2023-04-01T21:56:30.127Z,97635.25
2023-04-01T21:59:24.859Z,97648.44
2023-04-01T22:02:12.493Z,97654.41
2023-04-01T22:05:03.962Z,97650.94
2023-04-01T22:07:41.330Z,97653.25
2023-04-01T22:10:27.487Z,97646.97
2023-04-01T22:13:00.414Z,97647.84
2023-04-01T22:16:04.403Z,97653.09
2023-04-01T22:18:39.000Z,97650.19
2023-04-01T22:22:02.531Z,97648.53
2023-04-01T22:24:44.339Z,97650.34
2023-04-01T22:27:31.312Z,97660.41
2023-04-01T22:30:08.768Z,97663.88
2023-04-01T22:32:55.985Z,97659.56
2023-04-01T22:35:22.578Z,97668.94
2023-04-01T22:38:01.604Z,97671.06
2023-04-01T22:41:12.145Z,97659.69
2023-04-01T22:43:43.052Z,97660.00
2023-04-01T22:46:28.793Z,97655.25
2023-04-01T22:49:17.519Z,97648.78
2023-04-01T22:51:50.532Z,97650.06
2023-04-01T22:54:32.321Z,97661.63
2023-04-01T22:57:06.026Z,97652.66
2023-04-01T22:59:40.345Z,97676.22
2023-04-01T23:02:45.306Z,97655.16
2023-04-01T23:05:17.752Z,97666.22
2023-04-01T23:08:01.482Z,97666.69
2023-04-01T23:10:44.398Z,97644.72
2023-04-01T23:13:19.066Z,97650.31
2023-04-01T23:15:46.460Z,97655.13
2023-04-01T23:18:37.567Z,97664.56
2023-04-01T23:21:22.529Z,97663.88
2023-04-01T23:24:14.728Z,97656.47
2023-04-01T23:26:59.059Z,97674.22
2023-04-01T23:29:26.968Z,97665.16
2023-04-01T23:32:01.656Z,97657.56
2023-04-01T23:34:37.451Z,97662.53
2023-04-01T23:37:09.526Z,97657.06
2023-04-01T23:39:41.758Z,97665.78
2023-04-01T23:42:16.658Z,97668.72
2023-04-01T23:44:46.577Z,97667.22
2023-04-01T23:47:34.919Z,97675.31
2023-04-01T23:50:11.839Z,97660.94
2023-04-01T23:52:47.124Z,97676.81
2023-04-01T23:55:27.034Z,97669.03
2023-04-01T23:58:16.455Z,97681.81
